Details From FHAW - Ascension Aux Af
To NSFA - Faleolo Intl
Flight Number -
Tags Generated
Created
Modified
Stats Distance 8,942 nm / 16,560 km
Max Altitude 0 ft / 0 m
Waypoints 4
Social Downloads 1
Likes 0
Share VATSIM

Download

Looking for another format? Having issues loading an existing format? Contact us
Advertisement - Login to hide

Notes

Generated

Route

FHAW GUTIN FA NSFA

ID Type Via Altitude Latitude Longitude Leg Dist Tot Dist Heading (true) Name
O FHAW APT - 0 ft / 0 m -7.96341˚ -14.40604˚ - 0 nm - -
GUTIN FIX - 0 ft / 0 m -42.40667˚ -72.81250˚ 3695 nm 3695 nm 226° / 254° -
FA NDB - 0 ft / 0 m -13.82647˚ -172.01856˚ 5245 nm 8941 nm 254° / 313° FALEOLO NDB
O NSFA APT - 0 ft / 0 m -13.83021˚ -172.02224˚ 0 nm 8941 nm 224° / 224° -

Altitude Profile

Advertisement - Login to hide

Weather


0- 5 10 15 20 25 30 35+ Temperature / ° C

Clouds and Precipitation
Forecast for 2017-12-18 18:00 UTC. Updated 2 hours ago

Ground ~20,000 ft ~40,000 ft Winds

FHAW

Details ICAO FHAW
Name Ascension Wideawake Field
Region Saint Helena, Ascension and Tristan da Cunha
Timezone Atlantic/St_Helena (UTC+0.0)
Stats Elevation 278 ft / 85 m (AMSL)
Location -7.969590° -14.393699°
Runways 1
Magnetic Variation 15.392° W

METAR

FHAW 181350Z 14020KT 9999 FEW024 27/19 Q1013 BLU NOSIG

Decode

TAF

TAF FHAW 181330Z 1815/1909 14015G25KT 9999 FEW020 PROB30 TEMPO 1818/1909 6000 SHRA SCT012

Decode

Departure Runways

ID Width Length Bearing (true) Bearing (mag) Surface Threshold Offset Overrun Length
13 148 ft / 45 m 10,008 ft / 3,050 m 116.79° 132.18° Asphalt 0 ft / 0 m 262 ft / 80 m
31 148 ft / 45 m 10,008 ft / 3,050 m 296.79° 312.18° Asphalt 0 ft / 0 m 495 ft / 151 m

NSFA

Details ICAO NSFA (APW)
Name Faleolo International
Region American Samoa
Timezone Pacific/Apia (UTC+14.0)
Stats Elevation 58 ft / 18 m (AMSL)
Location -13.830023° -172.009102°
Runways 1
Magnetic Variation 11.657° E

METAR

Not found

TAF

TAF NSFA 181131Z 1812/1912 35015KT 7000 -RA SCT016 BKN030 OVC040 TEMPO 1812/1912 14017G27KT 1500 +TSRA BKN015 FEW017CB

Decode

Destination Runways

ID Width Length Bearing (true) Bearing (mag) Surface Threshold Offset Overrun Length
08 148 ft / 45 m 10,361 ft / 3,158 m 89.30° 77.64° Asphalt 515 ft / 157 m 0 ft / 0 m
26 148 ft / 45 m 10,361 ft / 3,158 m 269.30° 257.64° Asphalt 0 ft / 0 m 102 ft / 31 m

Approach Navaids

Runway Type Ident Frequency Range Bearing (true) Bearing (mag) Slope Elevation
08 Localiser IAP 109.90 MHz 18 nm / 33 km 89.50° 77.84° - 9 ft / 3 m (AMSL)
08 Glidescope IAP 109.90 MHz 10 nm / 19 km 89.30° 77.64° 3.00° 58 ft / 18 m (AMSL)
08 DME IAP 109.90 MHz 18 nm / 33 km - - - 58 ft / 18 m (AMSL)